sensor_id;sensor_type;location;lat;lon;timestamp;P1;durP1;ratioP1;P2;durP2;ratioP2
63114;SDS011;49208;50.874;6.466;2023-11-22T07:03:27;18.85;;;10.13;;
63114;SDS011;49208;50.874;6.466;2023-11-22T07:05:52;25.25;;;10.02;;
63114;SDS011;49208;50.874;6.466;2023-11-22T07:08:17;22.08;;;11.02;;
63114;SDS011;49208;50.874;6.466;2023-11-22T07:10:43;23.95;;;11.10;;
63114;SDS011;49208;50.874;6.466;2023-11-22T07:13:10;22.48;;;10.23;;
63114;SDS011;49208;50.874;6.466;2023-11-22T07:15:36;21.42;;;9.88;;
63114;SDS011;49208;50.874;6.466;2023-11-22T07:18:02;22.15;;;11.15;;
63114;SDS011;49208;50.874;6.466;2023-11-22T07:20:28;19.77;;;10.65;;
63114;SDS011;49208;50.874;6.466;2023-11-22T07:22:53;19.02;;;9.52;;
63114;SDS011;49208;50.874;6.466;2023-11-22T07:25:22;23.73;;;10.65;;
63114;SDS011;49208;50.874;6.466;2023-11-22T07:27:50;22.73;;;11.50;;
63114;SDS011;49208;50.874;6.466;2023-11-22T07:30:18;25.33;;;11.98;;
63114;SDS011;49208;50.874;6.466;2023-11-22T07:32:45;24.63;;;10.40;;
63114;SDS011;49208;50.874;6.466;2023-11-22T07:35:11;23.40;;;11.43;;
63114;SDS011;49208;50.874;6.466;2023-11-22T07:37:40;21.50;;;10.93;;
63114;SDS011;49208;50.874;6.466;2023-11-22T07:40:07;24.08;;;12.00;;
63114;SDS011;49208;50.874;6.466;2023-11-22T07:42:34;22.20;;;10.82;;
63114;SDS011;49208;50.874;6.466;2023-11-22T07:45:03;22.77;;;11.52;;
63114;SDS011;49208;50.874;6.466;2023-11-22T07:47:29;21.67;;;10.52;;
63114;SDS011;49208;50.874;6.466;2023-11-22T07:49:54;23.75;;;11.30;;
63114;SDS011;49208;50.874;6.466;2023-11-22T07:52:23;23.63;;;12.48;;
63114;SDS011;49208;50.874;6.466;2023-11-22T07:54:55;26.27;;;11.18;;
63114;SDS011;49208;50.874;6.466;2023-11-22T07:57:21;21.27;;;10.90;;
63114;SDS011;49208;50.874;6.466;2023-11-22T07:59:48;23.05;;;11.10;;
63114;SDS011;49208;50.874;6.466;2023-11-22T08:02:13;21.08;;;11.18;;
63114;SDS011;49208;50.874;6.466;2023-11-22T08:04:39;23.50;;;12.20;;
63114;SDS011;49208;50.874;6.466;2023-11-22T08:07:05;23.65;;;10.82;;
63114;SDS011;49208;50.874;6.466;2023-11-22T08:09:31;24.52;;;11.15;;
63114;SDS011;49208;50.874;6.466;2023-11-22T08:11:58;22.40;;;11.13;;
63114;SDS011;49208;50.874;6.466;2023-11-22T08:14:24;21.25;;;11.10;;
63114;SDS011;49208;50.874;6.466;2023-11-22T08:16:52;25.95;;;12.27;;
63114;SDS011;49208;50.874;6.466;2023-11-22T08:19:18;25.25;;;11.82;;
63114;SDS011;49208;50.874;6.466;2023-11-22T08:21:43;25.58;;;13.23;;
63114;SDS011;49208;50.874;6.466;2023-11-22T08:24:09;26.30;;;11.90;;
63114;SDS011;49208;50.874;6.466;2023-11-22T08:26:34;24.10;;;11.63;;
63114;SDS011;49208;50.874;6.466;2023-11-22T08:29:00;26.60;;;13.27;;
63114;SDS011;49208;50.874;6.466;2023-11-22T08:31:26;27.50;;;13.05;;
63114;SDS011;49208;50.874;6.466;2023-11-22T08:33:51;33.00;;;14.65;;
63114;SDS011;49208;50.874;6.466;2023-11-22T08:36:17;30.23;;;14.63;;
63114;SDS011;49208;50.874;6.466;2023-11-22T08:38:43;27.25;;;12.68;;
63114;SDS011;49208;50.874;6.466;2023-11-22T08:41:09;26.52;;;13.85;;
63114;SDS011;49208;50.874;6.466;2023-11-22T08:43:38;21.30;;;11.95;;
63114;SDS011;49208;50.874;6.466;2023-11-22T08:46:04;21.75;;;12.02;;
63114;SDS011;49208;50.874;6.466;2023-11-22T08:48:31;19.88;;;11.77;;
63114;SDS011;49208;50.874;6.466;2023-11-22T08:50:57;21.60;;;10.20;;
63114;SDS011;49208;50.874;6.466;2023-11-22T08:53:23;20.90;;;10.07;;
63114;SDS011;49208;50.874;6.466;2023-11-22T08:55:49;20.48;;;11.07;;
63114;SDS011;49208;50.874;6.466;2023-11-22T08:58:14;25.25;;;12.38;;
63114;SDS011;49208;50.874;6.466;2023-11-22T09:00:40;24.70;;;11.98;;
63114;SDS011;49208;50.874;6.466;2023-11-22T09:03:07;23.88;;;11.45;;
63114;SDS011;49208;50.874;6.466;2023-11-22T09:05:41;25.48;;;11.45;;
63114;SDS011;49208;50.874;6.466;2023-11-22T09:08:07;22.55;;;11.27;;
63114;SDS011;49208;50.874;6.466;2023-11-22T09:10:38;21.33;;;10.63;;
63114;SDS011;49208;50.874;6.466;2023-11-22T09:13:04;26.80;;;12.43;;
63114;SDS011;49208;50.874;6.466;2023-11-22T09:15:31;23.52;;;12.73;;
63114;SDS011;49208;50.874;6.466;2023-11-22T09:17:58;24.60;;;12.85;;
63114;SDS011;49208;50.874;6.466;2023-11-22T09:20:24;27.33;;;13.55;;
63114;SDS011;49208;50.874;6.466;2023-11-22T09:22:51;27.40;;;13.48;;
63114;SDS011;49208;50.874;6.466;2023-11-22T09:25:20;25.98;;;13.65;;
63114;SDS011;49208;50.874;6.466;2023-11-22T09:27:48;26.85;;;13.32;;
63114;SDS011;49208;50.874;6.466;2023-11-22T09:30:19;29.27;;;14.38;;
63114;SDS011;49208;50.874;6.466;2023-11-22T09:33:01;33.47;;;15.65;;
63114;SDS011;49208;50.874;6.466;2023-11-22T09:35:31;29.33;;;14.27;;
63114;SDS011;49208;50.874;6.466;2023-11-22T09:38:00;28.98;;;14.15;;
63114;SDS011;49208;50.874;6.466;2023-11-22T09:40:29;27.30;;;13.48;;
63114;SDS011;49208;50.874;6.466;2023-11-22T09:42:57;27.80;;;15.50;;
63114;SDS011;49208;50.874;6.466;2023-11-22T09:45:27;32.90;;;14.70;;
63114;SDS011;49208;50.874;6.466;2023-11-22T09:47:56;31.50;;;14.48;;
63114;SDS011;49208;50.874;6.466;2023-11-22T09:55:56;29.70;;;14.20;;
63114;SDS011;49208;50.874;6.466;2023-11-22T09:58:22;28.30;;;13.80;;
63114;SDS011;49208;50.874;6.466;2023-11-22T10:00:49;27.55;;;14.05;;
63114;SDS011;49208;50.874;6.466;2023-11-22T10:03:17;28.10;;;14.75;;
63114;SDS011;49208;50.874;6.466;2023-11-22T10:05:45;28.00;;;15.15;;
63114;SDS011;49208;50.874;6.466;2023-11-22T10:08:10;24.75;;;12.20;;
63114;SDS011;49208;50.874;6.466;2023-11-22T10:10:36;25.75;;;13.55;;
63114;SDS011;49208;50.874;6.466;2023-11-22T10:13:01;24.95;;;14.07;;
63114;SDS011;49208;50.874;6.466;2023-11-22T10:15:29;26.90;;;13.68;;
63114;SDS011;49208;50.874;6.466;2023-11-22T10:17:55;28.65;;;13.77;;
63114;SDS011;49208;50.874;6.466;2023-11-22T10:20:23;28.48;;;14.57;;
63114;SDS011;49208;50.874;6.466;2023-11-22T10:22:51;27.30;;;14.13;;
63114;SDS011;49208;50.874;6.466;2023-11-22T10:25:17;25.73;;;14.20;;
63114;SDS011;49208;50.874;6.466;2023-11-22T10:27:44;30.90;;;16.00;;
63114;SDS011;49208;50.874;6.466;2023-11-22T10:30:11;26.02;;;13.88;;
63114;SDS011;49208;50.874;6.466;2023-11-22T10:32:37;28.02;;;14.27;;
63114;SDS011;49208;50.874;6.466;2023-11-22T10:35:04;25.45;;;14.55;;
63114;SDS011;49208;50.874;6.466;2023-11-22T10:37:31;34.10;;;15.52;;
63114;SDS011;49208;50.874;6.466;2023-11-22T10:39:57;28.98;;;14.90;;
63114;SDS011;49208;50.874;6.466;2023-11-22T10:42:23;25.13;;;13.93;;
63114;SDS011;49208;50.874;6.466;2023-11-22T10:44:49;26.92;;;14.13;;
63114;SDS011;49208;50.874;6.466;2023-11-22T10:47:15;26.73;;;13.15;;
63114;SDS011;49208;50.874;6.466;2023-11-22T10:49:44;26.73;;;13.55;;
63114;SDS011;49208;50.874;6.466;2023-11-22T10:52:09;23.70;;;12.23;;
63114;SDS011;49208;50.874;6.466;2023-11-22T10:54:38;26.25;;;13.77;;
63114;SDS011;49208;50.874;6.466;2023-11-22T10:57:11;25.25;;;12.88;;
63114;SDS011;49208;50.874;6.466;2023-11-22T10:59:39;30.58;;;14.57;;
63114;SDS011;49208;50.874;6.466;2023-11-22T11:02:10;24.60;;;13.10;;
63114;SDS011;49208;50.874;6.466;2023-11-22T11:04:46;24.65;;;14.25;;
63114;SDS011;49208;50.874;6.466;2023-11-22T11:07:16;28.15;;;13.68;;
63114;SDS011;49208;50.874;6.466;2023-11-22T11:09:47;30.98;;;14.00;;
63114;SDS011;49208;50.874;6.466;2023-11-22T11:12:16;25.73;;;13.30;;
63114;SDS011;49208;50.874;6.466;2023-11-22T11:14:42;22.55;;;12.85;;
63114;SDS011;49208;50.874;6.466;2023-11-22T11:17:11;22.58;;;13.20;;
63114;SDS011;49208;50.874;6.466;2023-11-22T11:19:38;23.48;;;12.45;;
63114;SDS011;49208;50.874;6.466;2023-11-22T11:22:07;22.15;;;12.13;;
63114;SDS011;49208;50.874;6.466;2023-11-22T11:24:46;21.67;;;12.48;;
63114;SDS011;49208;50.874;6.466;2023-11-22T11:27:12;24.15;;;12.18;;
63114;SDS011;49208;50.874;6.466;2023-11-22T11:29:38;19.92;;;11.32;;
63114;SDS011;49208;50.874;6.466;2023-11-22T11:32:13;22.30;;;11.30;;
63114;SDS011;49208;50.874;6.466;2023-11-22T11:34:55;20.70;;;11.05;;
63114;SDS011;49208;50.874;6.466;2023-11-22T11:37:21;20.35;;;10.32;;
63114;SDS011;49208;50.874;6.466;2023-11-22T11:39:46;20.30;;;11.00;;
63114;SDS011;49208;50.874;6.466;2023-11-22T11:42:12;18.40;;;9.48;;
63114;SDS011;49208;50.874;6.466;2023-11-22T11:44:50;19.08;;;9.70;;
63114;SDS011;49208;50.874;6.466;2023-11-22T11:47:21;20.73;;;10.23;;
63114;SDS011;49208;50.874;6.466;2023-11-22T11:49:48;17.35;;;9.95;;
63114;SDS011;49208;50.874;6.466;2023-11-22T11:52:15;18.38;;;10.13;;
63114;SDS011;49208;50.874;6.466;2023-11-22T11:54:41;21.85;;;11.63;;
63114;SDS011;49208;50.874;6.466;2023-11-22T11:57:06;20.33;;;11.07;;
63114;SDS011;49208;50.874;6.466;2023-11-22T11:59:33;17.95;;;10.18;;
63114;SDS011;49208;50.874;6.466;2023-11-22T12:02:00;20.75;;;10.40;;
63114;SDS011;49208;50.874;6.466;2023-11-22T12:04:25;20.55;;;10.05;;
63114;SDS011;49208;50.874;6.466;2023-11-22T12:06:51;18.65;;;10.25;;
63114;SDS011;49208;50.874;6.466;2023-11-22T12:09:23;19.52;;;10.30;;
63114;SDS011;49208;50.874;6.466;2023-11-22T12:11:50;16.70;;;8.70;;
63114;SDS011;49208;50.874;6.466;2023-11-22T12:14:18;16.15;;;8.48;;
63114;SDS011;49208;50.874;6.466;2023-11-22T12:16:44;14.55;;;8.18;;
63114;SDS011;49208;50.874;6.466;2023-11-22T12:19:13;17.05;;;8.73;;
63114;SDS011;49208;50.874;6.466;2023-11-22T12:21:47;15.52;;;8.82;;
63114;SDS011;49208;50.874;6.466;2023-11-22T12:24:12;15.43;;;8.70;;
63114;SDS011;49208;50.874;6.466;2023-11-22T12:26:39;14.93;;;7.68;;
63114;SDS011;49208;50.874;6.466;2023-11-22T12:29:06;13.60;;;7.95;;
63114;SDS011;49208;50.874;6.466;2023-11-22T12:31:34;15.90;;;7.70;;
63114;SDS011;49208;50.874;6.466;2023-11-22T12:34:00;14.00;;;8.05;;
63114;SDS011;49208;50.874;6.466;2023-11-22T12:36:27;13.07;;;6.87;;
63114;SDS011;49208;50.874;6.466;2023-11-22T12:38:54;10.02;;;5.22;;
63114;SDS011;49208;50.874;6.466;2023-11-22T12:41:20;12.93;;;6.43;;
63114;SDS011;49208;50.874;6.466;2023-11-22T12:44:01;11.57;;;5.57;;
63114;SDS011;49208;50.874;6.466;2023-11-22T12:46:27;11.90;;;6.28;;
63114;SDS011;49208;50.874;6.466;2023-11-22T12:49:04;11.13;;;6.15;;
63114;SDS011;49208;50.874;6.466;2023-11-22T12:51:30;11.57;;;5.50;;
63114;SDS011;49208;50.874;6.466;2023-11-22T12:53:56;11.68;;;5.60;;
63114;SDS011;49208;50.874;6.466;2023-11-22T12:56:22;9.02;;;4.72;;
63114;SDS011;49208;50.874;6.466;2023-11-22T12:58:47;10.20;;;4.53;;
63114;SDS011;49208;50.874;6.466;2023-11-22T13:01:13;11.35;;;5.38;;
63114;SDS011;49208;50.874;6.466;2023-11-22T13:03:38;9.55;;;4.68;;
63114;SDS011;49208;50.874;6.466;2023-11-22T13:06:03;7.93;;;3.72;;
63114;SDS011;49208;50.874;6.466;2023-11-22T13:08:29;8.60;;;4.22;;
63114;SDS011;49208;50.874;6.466;2023-11-22T13:10:54;7.15;;;3.88;;
63114;SDS011;49208;50.874;6.466;2023-11-22T13:13:22;11.43;;;4.88;;
63114;SDS011;49208;50.874;6.466;2023-11-22T13:15:48;6.53;;;3.33;;
63114;SDS011;49208;50.874;6.466;2023-11-22T13:18:16;8.23;;;4.07;;
63114;SDS011;49208;50.874;6.466;2023-11-22T13:20:42;5.68;;;2.97;;
63114;SDS011;49208;50.874;6.466;2023-11-22T13:23:08;5.97;;;2.97;;
63114;SDS011;49208;50.874;6.466;2023-11-22T13:25:34;7.03;;;2.95;;
63114;SDS011;49208;50.874;6.466;2023-11-22T13:28:00;7.72;;;3.40;;
63114;SDS011;49208;50.874;6.466;2023-11-22T13:30:25;7.50;;;2.72;;
63114;SDS011;49208;50.874;6.466;2023-11-22T13:32:54;6.15;;;2.75;;
63114;SDS011;49208;50.874;6.466;2023-11-22T13:35:23;6.55;;;2.55;;
63114;SDS011;49208;50.874;6.466;2023-11-22T13:37:59;6.28;;;3.13;;
63114;SDS011;49208;50.874;6.466;2023-11-22T13:40:26;6.47;;;2.70;;
63114;SDS011;49208;50.874;6.466;2023-11-22T13:42:55;6.40;;;2.38;;
63114;SDS011;49208;50.874;6.466;2023-11-22T13:45:22;5.60;;;2.63;;
63114;SDS011;49208;50.874;6.466;2023-11-22T13:47:48;5.55;;;2.60;;
63114;SDS011;49208;50.874;6.466;2023-11-22T13:50:20;5.30;;;2.75;;
63114;SDS011;49208;50.874;6.466;2023-11-22T13:52:49;5.10;;;1.90;;
63114;SDS011;49208;50.874;6.466;2023-11-22T13:55:15;3.70;;;1.63;;
63114;SDS011;49208;50.874;6.466;2023-11-22T13:57:42;3.10;;;1.42;;
63114;SDS011;49208;50.874;6.466;2023-11-22T14:00:09;3.67;;;1.30;;
63114;SDS011;49208;50.874;6.466;2023-11-22T14:02:43;3.75;;;1.50;;
63114;SDS011;49208;50.874;6.466;2023-11-22T14:05:12;2.63;;;1.08;;
63114;SDS011;49208;50.874;6.466;2023-11-22T14:07:38;4.28;;;1.58;;
63114;SDS011;49208;50.874;6.466;2023-11-22T14:10:04;3.95;;;1.30;;
63114;SDS011;49208;50.874;6.466;2023-11-22T14:12:31;4.85;;;2.00;;
63114;SDS011;49208;50.874;6.466;2023-11-22T14:14:57;7.28;;;1.98;;
63114;SDS011;49208;50.874;6.466;2023-11-22T14:17:23;7.35;;;1.90;;
63114;SDS011;49208;50.874;6.466;2023-11-22T14:19:49;3.83;;;1.40;;
63114;SDS011;49208;50.874;6.466;2023-11-22T14:22:15;5.88;;;2.30;;
63114;SDS011;49208;50.874;6.466;2023-11-22T14:24:42;5.57;;;2.65;;
63114;SDS011;49208;50.874;6.466;2023-11-22T14:27:08;8.15;;;3.47;;
63114;SDS011;49208;50.874;6.466;2023-11-22T14:29:35;10.88;;;4.90;;
63114;SDS011;49208;50.874;6.466;2023-11-22T14:32:01;10.45;;;4.10;;
63114;SDS011;49208;50.874;6.466;2023-11-22T14:34:27;11.50;;;5.82;;
63114;SDS011;49208;50.874;6.466;2023-11-22T14:36:52;11.45;;;5.13;;
63114;SDS011;49208;50.874;6.466;2023-11-22T14:39:21;9.82;;;5.60;;
63114;SDS011;49208;50.874;6.466;2023-11-22T14:41:46;10.40;;;5.68;;
63114;SDS011;49208;50.874;6.466;2023-11-22T14:44:12;13.98;;;5.80;;
63114;SDS011;49208;50.874;6.466;2023-11-22T14:46:37;14.27;;;5.57;;
63114;SDS011;49208;50.874;6.466;2023-11-22T14:49:03;12.43;;;5.53;;
63114;SDS011;49208;50.874;6.466;2023-11-22T14:51:29;12.02;;;5.80;;
63114;SDS011;49208;50.874;6.466;2023-11-22T14:53:55;11.20;;;6.13;;
63114;SDS011;49208;50.874;6.466;2023-11-22T14:56:20;10.85;;;5.90;;
63114;SDS011;49208;50.874;6.466;2023-11-22T14:58:46;12.90;;;6.22;;
63114;SDS011;49208;50.874;6.466;2023-11-22T15:01:18;8.18;;;4.90;;
63114;SDS011;49208;50.874;6.466;2023-11-22T15:03:44;11.50;;;5.05;;
63114;SDS011;49208;50.874;6.466;2023-11-22T15:06:10;12.10;;;5.25;;
63114;SDS011;49208;50.874;6.466;2023-11-22T15:08:35;13.05;;;4.80;;
63114;SDS011;49208;50.874;6.466;2023-11-22T15:11:02;12.40;;;5.63;;
63114;SDS011;49208;50.874;6.466;2023-11-22T15:13:28;11.85;;;5.68;;
63114;SDS011;49208;50.874;6.466;2023-11-22T15:15:53;10.05;;;4.63;;
63114;SDS011;49208;50.874;6.466;2023-11-22T15:18:21;12.07;;;5.68;;
63114;SDS011;49208;50.874;6.466;2023-11-22T15:20:47;9.73;;;4.80;;
63114;SDS011;49208;50.874;6.466;2023-11-22T15:23:12;12.15;;;5.05;;
63114;SDS011;49208;50.874;6.466;2023-11-22T15:25:38;11.18;;;4.95;;
63114;SDS011;49208;50.874;6.466;2023-11-22T15:28:03;9.30;;;4.22;;
63114;SDS011;49208;50.874;6.466;2023-11-22T15:30:29;10.98;;;4.95;;
63114;SDS011;49208;50.874;6.466;2023-11-22T15:32:55;11.07;;;4.88;;
63114;SDS011;49208;50.874;6.466;2023-11-22T15:35:20;9.57;;;4.57;;
63114;SDS011;49208;50.874;6.466;2023-11-22T15:37:46;10.07;;;4.82;;
63114;SDS011;49208;50.874;6.466;2023-11-22T15:40:11;11.10;;;4.68;;
63114;SDS011;49208;50.874;6.466;2023-11-22T15:42:38;11.43;;;5.15;;
63114;SDS011;49208;50.874;6.466;2023-11-22T15:45:05;10.95;;;5.07;;
63114;SDS011;49208;50.874;6.466;2023-11-22T15:47:31;9.73;;;4.80;;
63114;SDS011;49208;50.874;6.466;2023-11-22T15:49:57;10.45;;;4.47;;
63114;SDS011;49208;50.874;6.466;2023-11-22T15:52:23;12.10;;;4.30;;
63114;SDS011;49208;50.874;6.466;2023-11-22T15:54:48;12.23;;;5.10;;
63114;SDS011;49208;50.874;6.466;2023-11-22T15:57:13;8.80;;;4.72;;
63114;SDS011;49208;50.874;6.466;2023-11-22T15:59:39;12.88;;;6.00;;
63114;SDS011;49208;50.874;6.466;2023-11-22T16:02:05;12.82;;;6.70;;
63114;SDS011;49208;50.874;6.466;2023-11-22T16:04:32;11.43;;;6.22;;
63114;SDS011;49208;50.874;6.466;2023-11-22T16:06:57;13.77;;;6.68;;
63114;SDS011;49208;50.874;6.466;2023-11-22T16:09:23;14.35;;;6.95;;
63114;SDS011;49208;50.874;6.466;2023-11-22T16:11:49;12.32;;;6.32;;
63114;SDS011;49208;50.874;6.466;2023-11-22T16:14:14;11.02;;;6.38;;
63114;SDS011;49208;50.874;6.466;2023-11-22T16:16:40;10.52;;;6.18;;
63114;SDS011;49208;50.874;6.466;2023-11-22T16:19:06;13.00;;;7.95;;
63114;SDS011;49208;50.874;6.466;2023-11-22T16:21:32;14.43;;;7.65;;
63114;SDS011;49208;50.874;6.466;2023-11-22T16:23:58;13.23;;;7.43;;
63114;SDS011;49208;50.874;6.466;2023-11-22T16:26:24;13.85;;;7.75;;
63114;SDS011;49208;50.874;6.466;2023-11-22T16:28:51;14.02;;;8.55;;
63114;SDS011;49208;50.874;6.466;2023-11-22T16:31:17;12.13;;;7.30;;
63114;SDS011;49208;50.874;6.466;2023-11-22T16:33:44;16.42;;;8.45;;
63114;SDS011;49208;50.874;6.466;2023-11-22T16:36:10;16.40;;;9.55;;
63114;SDS011;49208;50.874;6.466;2023-11-22T16:38:36;15.70;;;9.00;;
63114;SDS011;49208;50.874;6.466;2023-11-22T16:41:02;15.07;;;7.50;;
63114;SDS011;49208;50.874;6.466;2023-11-22T16:43:29;14.70;;;6.57;;
63114;SDS011;49208;50.874;6.466;2023-11-22T16:45:54;15.85;;;6.68;;
63114;SDS011;49208;50.874;6.466;2023-11-22T16:48:21;14.23;;;7.13;;
63114;SDS011;49208;50.874;6.466;2023-11-22T16:50:46;13.43;;;6.90;;
63114;SDS011;49208;50.874;6.466;2023-11-22T16:53:11;16.25;;;8.13;;
63114;SDS011;49208;50.874;6.466;2023-11-22T16:55:39;17.02;;;7.03;;
63114;SDS011;49208;50.874;6.466;2023-11-22T16:58:06;14.70;;;7.28;;
63114;SDS011;49208;50.874;6.466;2023-11-22T17:00:31;13.73;;;7.93;;
63114;SDS011;49208;50.874;6.466;2023-11-22T17:02:57;14.73;;;6.63;;
63114;SDS011;49208;50.874;6.466;2023-11-22T17:05:25;14.75;;;7.80;;
63114;SDS011;49208;50.874;6.466;2023-11-22T17:07:51;13.77;;;6.90;;
63114;SDS011;49208;50.874;6.466;2023-11-22T17:10:16;13.75;;;7.05;;
63114;SDS011;49208;50.874;6.466;2023-11-22T17:12:42;13.10;;;7.22;;
63114;SDS011;49208;50.874;6.466;2023-11-22T17:15:08;13.55;;;7.53;;
63114;SDS011;49208;50.874;6.466;2023-11-22T17:17:33;16.02;;;7.90;;
63114;SDS011;49208;50.874;6.466;2023-11-22T17:20:00;15.23;;;6.60;;
63114;SDS011;49208;50.874;6.466;2023-11-22T17:22:26;17.00;;;7.55;;
63114;SDS011;49208;50.874;6.466;2023-11-22T17:24:54;15.10;;;7.70;;
63114;SDS011;49208;50.874;6.466;2023-11-22T17:27:20;14.25;;;7.55;;
63114;SDS011;49208;50.874;6.466;2023-11-22T17:29:46;15.40;;;7.97;;
63114;SDS011;49208;50.874;6.466;2023-11-22T17:32:15;15.48;;;7.28;;
63114;SDS011;49208;50.874;6.466;2023-11-22T17:34:41;15.82;;;8.20;;
63114;SDS011;49208;50.874;6.466;2023-11-22T17:37:06;17.52;;;8.75;;
63114;SDS011;49208;50.874;6.466;2023-11-22T17:39:32;19.48;;;9.55;;
63114;SDS011;49208;50.874;6.466;2023-11-22T17:41:57;19.42;;;9.10;;
63114;SDS011;49208;50.874;6.466;2023-11-22T17:44:23;16.73;;;8.85;;
63114;SDS011;49208;50.874;6.466;2023-11-22T17:46:50;18.02;;;10.05;;
63114;SDS011;49208;50.874;6.466;2023-11-22T17:49:17;17.77;;;9.82;;
63114;SDS011;49208;50.874;6.466;2023-11-22T17:51:43;21.48;;;11.35;;
63114;SDS011;49208;50.874;6.466;2023-11-22T17:54:09;15.95;;;9.73;;
63114;SDS011;49208;50.874;6.466;2023-11-22T17:56:35;20.85;;;10.77;;
63114;SDS011;49208;50.874;6.466;2023-11-22T17:59:00;20.15;;;11.65;;
63114;SDS011;49208;50.874;6.466;2023-11-22T18:01:28;21.90;;;12.05;;
63114;SDS011;49208;50.874;6.466;2023-11-22T18:03:56;23.02;;;11.15;;
63114;SDS011;49208;50.874;6.466;2023-11-22T18:06:22;20.27;;;11.93;;
63114;SDS011;49208;50.874;6.466;2023-11-22T18:08:48;21.70;;;11.77;;
63114;SDS011;49208;50.874;6.466;2023-11-22T18:11:14;21.67;;;12.05;;
63114;SDS011;49208;50.874;6.466;2023-11-22T18:13:41;20.83;;;12.57;;
63114;SDS011;49208;50.874;6.466;2023-11-22T18:16:07;19.25;;;12.05;;
63114;SDS011;49208;50.874;6.466;2023-11-22T18:18:32;18.48;;;11.05;;
63114;SDS011;49208;50.874;6.466;2023-11-22T18:20:58;21.85;;;11.07;;
63114;SDS011;49208;50.874;6.466;2023-11-22T18:23:23;23.92;;;12.15;;
63114;SDS011;49208;50.874;6.466;2023-11-22T18:25:50;22.48;;;11.60;;
63114;SDS011;49208;50.874;6.466;2023-11-22T18:28:16;23.98;;;11.88;;
63114;SDS011;49208;50.874;6.466;2023-11-22T18:30:43;21.52;;;10.70;;
63114;SDS011;49208;50.874;6.466;2023-11-22T18:33:09;18.92;;;10.52;;
63114;SDS011;49208;50.874;6.466;2023-11-22T18:35:34;24.40;;;10.27;;
63114;SDS011;49208;50.874;6.466;2023-11-22T18:38:00;20.80;;;11.25;;
63114;SDS011;49208;50.874;6.466;2023-11-22T18:40:25;19.42;;;10.63;;
63114;SDS011;49208;50.874;6.466;2023-11-22T18:42:51;20.20;;;11.07;;
63114;SDS011;49208;50.874;6.466;2023-11-22T18:45:17;19.77;;;10.90;;
63114;SDS011;49208;50.874;6.466;2023-11-22T18:47:42;22.38;;;12.25;;
63114;SDS011;49208;50.874;6.466;2023-11-22T18:50:08;21.60;;;11.73;;
63114;SDS011;49208;50.874;6.466;2023-11-22T18:52:34;21.77;;;11.55;;
63114;SDS011;49208;50.874;6.466;2023-11-22T18:54:59;18.90;;;10.05;;
63114;SDS011;49208;50.874;6.466;2023-11-22T18:57:25;22.50;;;10.48;;
63114;SDS011;49208;50.874;6.466;2023-11-22T18:59:51;19.20;;;10.82;;
63114;SDS011;49208;50.874;6.466;2023-11-22T19:02:16;19.58;;;10.10;;
63114;SDS011;49208;50.874;6.466;2023-11-22T19:04:42;20.85;;;9.85;;
63114;SDS011;49208;50.874;6.466;2023-11-22T19:07:09;17.70;;;8.98;;
63114;SDS011;49208;50.874;6.466;2023-11-22T19:09:36;21.90;;;9.90;;
63114;SDS011;49208;50.874;6.466;2023-11-22T19:12:02;19.10;;;9.98;;
63114;SDS011;49208;50.874;6.466;2023-11-22T19:14:28;19.08;;;8.55;;
63114;SDS011;49208;50.874;6.466;2023-11-22T19:16:55;18.70;;;9.00;;
63114;SDS011;49208;50.874;6.466;2023-11-22T19:19:20;17.75;;;8.75;;
63114;SDS011;49208;50.874;6.466;2023-11-22T19:21:46;21.63;;;9.45;;
63114;SDS011;49208;50.874;6.466;2023-11-22T19:24:11;21.55;;;9.23;;
63114;SDS011;49208;50.874;6.466;2023-11-22T19:26:37;16.95;;;9.35;;
63114;SDS011;49208;50.874;6.466;2023-11-22T19:29:03;17.20;;;9.13;;
63114;SDS011;49208;50.874;6.466;2023-11-22T19:31:29;19.27;;;8.82;;
63114;SDS011;49208;50.874;6.466;2023-11-22T19:33:54;15.05;;;7.78;;
63114;SDS011;49208;50.874;6.466;2023-11-22T19:38:47;16.55;;;7.53;;
63114;SDS011;49208;50.874;6.466;2023-11-22T19:41:14;16.20;;;8.00;;
63114;SDS011;49208;50.874;6.466;2023-11-22T19:43:40;18.38;;;8.27;;
63114;SDS011;49208;50.874;6.466;2023-11-22T19:46:05;19.00;;;8.68;;
63114;SDS011;49208;50.874;6.466;2023-11-22T19:48:30;18.63;;;8.13;;
63114;SDS011;49208;50.874;6.466;2023-11-22T19:50:56;16.45;;;8.40;;
63114;SDS011;49208;50.874;6.466;2023-11-22T19:53:21;17.67;;;8.65;;
63114;SDS011;49208;50.874;6.466;2023-11-22T19:55:47;18.15;;;8.68;;
63114;SDS011;49208;50.874;6.466;2023-11-22T19:58:13;18.50;;;9.10;;
63114;SDS011;49208;50.874;6.466;2023-11-22T20:00:39;18.70;;;9.10;;
63114;SDS011;49208;50.874;6.466;2023-11-22T20:03:04;17.30;;;8.57;;
63114;SDS011;49208;50.874;6.466;2023-11-22T20:05:30;20.88;;;9.40;;
63114;SDS011;49208;50.874;6.466;2023-11-22T20:07:55;20.17;;;8.98;;
63114;SDS011;49208;50.874;6.466;2023-11-22T20:10:20;18.98;;;9.30;;
63114;SDS011;49208;50.874;6.466;2023-11-22T20:12:51;20.83;;;8.05;;
63114;SDS011;49208;50.874;6.466;2023-11-22T20:15:17;15.10;;;7.85;;
63114;SDS011;49208;50.874;6.466;2023-11-22T20:17:43;19.77;;;8.85;;
63114;SDS011;49208;50.874;6.466;2023-11-22T20:20:10;19.48;;;8.57;;
63114;SDS011;49208;50.874;6.466;2023-11-22T20:22:36;16.60;;;9.23;;
63114;SDS011;49208;50.874;6.466;2023-11-22T20:25:02;17.00;;;7.57;;
63114;SDS011;49208;50.874;6.466;2023-11-22T20:27:28;16.38;;;7.80;;
63114;SDS011;49208;50.874;6.466;2023-11-22T20:29:54;16.73;;;8.13;;
63114;SDS011;49208;50.874;6.466;2023-11-22T20:32:20;18.95;;;9.70;;
63114;SDS011;49208;50.874;6.466;2023-11-22T20:34:51;16.42;;;8.25;;
63114;SDS011;49208;50.874;6.466;2023-11-22T20:37:17;15.65;;;8.00;;
63114;SDS011;49208;50.874;6.466;2023-11-22T20:39:43;18.73;;;8.00;;
63114;SDS011;49208;50.874;6.466;2023-11-22T20:42:08;17.98;;;9.52;;
63114;SDS011;49208;50.874;6.466;2023-11-22T20:44:36;17.35;;;8.77;;
63114;SDS011;49208;50.874;6.466;2023-11-22T20:47:02;17.00;;;8.52;;
63114;SDS011;49208;50.874;6.466;2023-11-22T20:49:29;19.88;;;8.98;;
63114;SDS011;49208;50.874;6.466;2023-11-22T20:51:56;17.05;;;8.02;;
63114;SDS011;49208;50.874;6.466;2023-11-22T20:54:21;17.02;;;8.07;;
63114;SDS011;49208;50.874;6.466;2023-11-22T20:56:47;19.27;;;9.73;;
63114;SDS011;49208;50.874;6.466;2023-11-22T20:59:13;14.50;;;7.82;;
63114;SDS011;49208;50.874;6.466;2023-11-22T21:01:39;18.73;;;8.80;;
63114;SDS011;49208;50.874;6.466;2023-11-22T21:04:04;16.95;;;8.75;;
63114;SDS011;49208;50.874;6.466;2023-11-22T21:06:30;16.65;;;8.43;;
63114;SDS011;49208;50.874;6.466;2023-11-22T21:08:57;18.73;;;9.00;;
63114;SDS011;49208;50.874;6.466;2023-11-22T21:11:23;19.38;;;8.65;;
63114;SDS011;49208;50.874;6.466;2023-11-22T21:13:49;19.23;;;8.82;;
63114;SDS011;49208;50.874;6.466;2023-11-22T21:16:14;16.90;;;7.53;;
63114;SDS011;49208;50.874;6.466;2023-11-22T21:18:46;18.83;;;9.07;;
63114;SDS011;49208;50.874;6.466;2023-11-22T21:21:15;14.88;;;7.10;;
63114;SDS011;49208;50.874;6.466;2023-11-22T21:23:41;17.77;;;8.00;;
63114;SDS011;49208;50.874;6.466;2023-11-22T21:26:07;18.38;;;7.72;;
63114;SDS011;49208;50.874;6.466;2023-11-22T21:28:33;18.92;;;8.55;;
63114;SDS011;49208;50.874;6.466;2023-11-22T21:30:59;17.38;;;7.97;;
63114;SDS011;49208;50.874;6.466;2023-11-22T21:33:25;15.77;;;8.20;;
63114;SDS011;49208;50.874;6.466;2023-11-22T21:35:50;17.05;;;7.38;;
63114;SDS011;49208;50.874;6.466;2023-11-22T21:38:16;13.05;;;7.32;;